Latest Weather Observations for Esperance

IDW60801

Issued at 1:32 pm WST Monday 30 March 2015 (issued every 30 minutes, with the page automatically refreshed every 10 minutes)

About weather observations | Map of weather stations | Latest weather observations for WA | Other Formats
Station Details ID: 009789 Name: ESPERANCE Lat: -33.83 Lon: 121.89 Height: 25.0 m
Data from the previous 72 hours. | See also: Recent months at Esperance
Date/Time
WST
Temp
°C
App
Temp
°C
Dew
Point
Rel
Hum
%
Delta-T
°C
Wind Press
QNH
hPa
Press
MSL
hPa
Rain
since 9 am
mm
Dir
 
Spd
km/h
Gust
km/h
Spd
kts
Gust
kts
30/01:00pm 32.7 28.9 5.8 18 14.4 NNE 15 22 8 12 1016.0 1015.9 0.0
30/12:30pm 32.5 27.9 5.4 18 14.4 N 19 28 10 15 1016.3 1016.2 0.0
30/12:00pm 31.4 26.3 5.8 20 13.6 N 22 32 12 17 1017.0 1016.9 0.0
30/11:00am 30.5 25.2 6.9 22 12.7 N 24 33 13 18 1018.1 1018.0 0.0
30/10:00am 28.4 22.6 7.9 27 11.1 N 28 39 15 21 1018.8 1018.7 0.0
30/09:30am 27.0 21.6 8.0 30 10.2 N 26 35 14 19 1019.3 1019.2 0.0
30/08:00am 20.4 16.5 9.3 49 5.9 N 20 32 11 17 1019.9 1019.8 0.0
30/06:30am 15.9 13.2 10.4 70 2.9 N 15 20 8 11 1019.4 1019.3 0.0
30/05:30am 15.6 14.0 11.7 77 2.1 NNE 11 17 6 9 1019.1 1019.0 0.0
30/05:00am 15.5 13.8 12.4 82 1.7 N 13 17 7 9 1019.0 1018.9 0.0
30/04:30am 15.9 13.8 12.4 80 1.9 N 15 22 8 12 1018.7 1018.6 0.0
30/04:00am 16.2 13.8 12.8 80 1.9 NNE 17 24 9 13 1018.6 1018.5 0.0
30/03:30am 15.9 14.4 13.0 83 1.6 NNE 13 20 7 11 1018.5 1018.4 0.0
30/03:00am 15.8 15.1 13.3 85 1.4 NE 9 11 5 6 1018.7 1018.6 0.0
30/02:30am 16.0 15.4 13.5 85 1.4 NE 9 13 5 7 1018.9 1018.8 0.0
30/02:00am 16.2 15.6 13.5 84 1.5 ENE 9 15 5 8 1019.0 1018.9 0.0
30/01:30am 16.3 15.4 13.8 85 1.4 ENE 11 17 6 9 1019.5 1019.4 0.0
30/01:00am 16.8 15.5 13.8 82 1.7 NE 13 20 7 11 1019.8 1019.7 0.0
30/12:30am 16.9 15.5 13.5 80 1.9 NE 13 20 7 11 1020.1 1020.0 0.0
30/12:00am 16.6 15.1 13.2 80 1.9 NE 13 17 7 9 1020.3 1020.2 0.0
 
Date/Time
WST
Temp
°C
App
Temp
°C
Dew
Point
Rel
Hum
%
Delta-T
°C
Wind Press
QNH
hPa
Press
MSL
hPa
Rain
since 9 am
mm
Dir
 
Spd
km/h
Gust
km/h
Spd
kts
Gust
kts
29/11:30pm 16.8 14.9 13.0 78 2.1 NE 15 20 8 11 1020.4 1020.3 0.0
29/11:00pm 16.7 15.2 13.1 79 2.0 NNE 13 17 7 9 1020.4 1020.3 0.0
29/10:30pm 16.5 15.7 12.9 79 2.0 NE 9 13 5 7 1020.8 1020.7 0.0
29/10:00pm 16.9 16.1 12.9 77 2.2 E 9 15 5 8 1020.9 1020.8 0.0
29/09:30pm 17.2 16.1 13.1 77 2.3 ENE 11 17 6 9 1021.1 1021.0 0.0
29/09:00pm 17.4 16.4 13.3 77 2.3 ENE 11 15 6 8 1021.4 1021.3 0.0
29/08:30pm 17.4 16.4 13.3 77 2.3 ENE 11 15 6 8 1021.4 1021.3 0.0
29/08:00pm 17.6 17.1 13.7 78 2.2 ENE 9 13 5 7 1021.5 1021.4 0.0
29/07:30pm 18.0 17.2 14.0 77 2.3 E 11 17 6 9 1021.3 1021.2 0.0
29/07:00pm 18.4 17.3 14.2 76 2.4 E 13 19 7 10 1021.1 1021.0 0.0
29/05:30pm 20.5 18.2 14.1 66 3.7 SE 19 26 10 14 1020.5 1020.4 0.0
29/05:00pm 20.8 18.0 14.4 67 3.7 SE 22 30 12 16 1020.3 1020.2 0.0
29/04:30pm 20.8 18.0 14.3 66 3.8 SE 22 30 12 16 1020.4 1020.3 0.0
29/04:00pm 21.2 17.2 13.1 60 4.6 SSE 26 32 14 17 1020.6 1020.5 0.0
29/03:30pm 21.1 17.9 13.0 60 4.6 SSE 22 30 12 16 1020.5 1020.4 0.0
29/03:00pm 21.4 18.7 14.6 65 4.0 SE 22 28 12 15 1020.7 1020.6 0.0
29/02:30pm 21.4 18.6 14.2 63 4.2 SSE 22 28 12 15 1020.6 1020.5 0.0
29/02:00pm 21.6 18.5 13.4 59 4.7 SSE 22 26 12 14 1020.8 1020.7 0.0
29/01:30pm 21.8 19.2 13.7 60 4.7 SSE 20 26 11 14 1021.1 1021.0 0.0
29/01:00pm 21.8 18.8 12.6 56 5.2 SSE 20 26 11 14 1021.3 1021.2 0.0
29/12:30pm 22.0 19.0 12.0 53 5.6 SSE 19 24 10 13 1021.5 1021.4 0.0
29/12:00pm 21.7 18.7 12.5 56 5.2 SSE 20 24 11 13 1021.9 1021.8 0.0
29/11:30am 21.7 19.3 12.5 56 5.2 SSE 17 22 9 12 1022.4 1022.3 0.0
29/11:00am 21.5 19.2 13.1 58 4.8 SSE 17 20 9 11 1022.6 1022.5 0.0
29/10:30am 22.0 21.5 12.2 53 5.5 E 6 11 3 6 1023.0 1022.9 0.0
29/10:00am 21.5 21.0 12.7 57 5.0 W 7 13 4 7 1023.4 1023.3 0.0
29/09:30am 20.9 20.4 12.8 60 4.6 NNE 7 11 4 6 1023.5 1023.4 0.0
29/09:00am 19.8 19.1 13.3 66 3.7 NNW 9 15 5 8 1023.6 1023.5 0.0
29/08:30am 18.8 18.6 14.8 77 2.3 NNW 9 11 5 6 1023.6 1023.5 0.0
29/08:00am 16.6 16.3 14.3 86 1.3 NW 9 11 5 6 1023.6 1023.5 0.0
29/07:30am 14.7 14.4 13.4 92 0.7 NW 7 11 4 6 1023.5 1023.4 0.0
29/07:00am 13.2 12.4 12.8 97 0.2 W 9 11 5 6 1023.4 1023.3 0.0
29/06:30am 12.4 11.3 12.0 97 0.2 WNW 9 11 5 6 1023.2 1023.1 0.0
29/06:00am 11.7 10.5 11.5 99 0.1 NW 9 11 5 6 1022.9 1022.8 0.0
29/05:30am 12.2 11.1 12.0 99 0.1 WNW 9 11 5 6 1022.6 1022.5 0.0
29/05:00am 12.7 11.7 12.3 97 0.2 W 9 11 5 6 1022.2 1022.1 0.0
29/04:30am 12.9 11.9 12.3 96 0.3 W 9 11 5 6 1022.1 1022.0 0.0
29/04:00am 13.0 12.0 12.4 96 0.3 WNW 9 11 5 6 1021.8 1021.7 0.0
29/03:30am 13.3 12.8 12.7 96 0.3 NW 7 9 4 5 1021.6 1021.5 0.0
29/03:00am 13.4 12.6 12.8 96 0.3 NW 9 11 5 6 1021.6 1021.5 0.0
29/02:30am 14.0 13.3 13.3 96 0.4 WNW 9 9 5 5 1021.6 1021.5 0.0
29/02:00am 13.9 13.4 12.8 93 0.6 NW 7 9 4 5 1021.5 1021.4 0.0
29/01:30am 13.5 13.0 12.6 94 0.5 NW 7 7 4 4 1021.6 1021.5 0.0
29/01:00am 14.0 13.6 13.1 94 0.5 NW 7 11 4 6 1021.5 1021.4 0.0
29/12:30am 14.2 13.8 13.1 93 0.6 WNW 7 7 4 4 1021.4 1021.3 0.0
29/12:00am 14.4 14.3 13.3 93 0.6 N 6 7 3 4 1021.3 1021.2 0.0
 
Date/Time
WST
Temp
°C
App
Temp
°C
Dew
Point
Rel
Hum
%
Delta-T
°C
Wind Press
QNH
hPa
Press
MSL
hPa
Rain
since 9 am
mm
Dir
 
Spd
km/h
Gust
km/h
Spd
kts
Gust
kts
28/11:30pm 14.9 14.8 13.8 93 0.6 NW 7 7 4 4 1021.3 1021.2 0.0
28/11:00pm 15.0 15.2 13.2 89 1.0 NW 4 9 2 5 1021.3 1021.2 0.0
28/10:30pm 15.2 16.3 13.4 89 1.0 CALM 0 0 0 0 1021.4 1021.3 0.0
28/10:00pm 15.5 16.0 13.9 90 0.9 W 4 6 2 3 1021.6 1021.5 0.0
28/09:30pm 16.2 16.9 14.6 90 0.9 W 4 6 2 3 1021.6 1021.5 0.0
28/09:00pm 17.1 18.9 15.4 90 1.0 CALM 0 4 0 2 1021.6 1021.5 0.0
28/08:30pm 17.5 19.2 15.3 87 1.3 CALM 0 2 0 1 1021.3 1021.2 0.0
28/08:00pm 17.9 18.3 15.2 84 1.6 S 7 9 4 5 1021.0 1020.9 0.0
28/07:30pm 18.2 18.7 15.1 82 1.8 SSW 6 9 3 5 1021.0 1020.9 0.0
28/07:00pm 18.5 18.8 15.1 80 2.0 SSW 7 11 4 6 1020.6 1020.5 0.0
28/06:30pm 18.8 19.1 15.0 78 2.2 SSW 7 9 4 5 1020.3 1020.2 0.0
28/06:00pm 18.9 18.7 14.8 77 2.4 SSW 9 13 5 7 1020.1 1020.0 0.0
28/05:30pm 19.4 18.5 14.8 75 2.7 S 13 15 7 8 1019.9 1019.8 0.0
28/05:00pm 19.9 18.6 14.9 73 2.9 SSW 15 30 8 16 1019.9 1019.8 0.0
28/04:30pm 20.3 18.2 14.6 70 3.3 S 19 26 10 14 1019.6 1019.5 0.0
28/04:00pm 20.7 18.5 14.9 69 3.4 S 20 32 11 17 1019.5 1019.4 0.0
28/03:30pm 21.4 19.2 14.8 66 3.9 SSW 20 28 11 15 1019.5 1019.4 0.0
28/03:00pm 21.7 19.6 15.3 67 3.8 S 20 35 11 19 1019.1 1019.0 0.0
28/02:30pm 22.2 19.7 15.1 64 4.2 SSW 22 32 12 17 1019.0 1018.9 0.0
28/02:00pm 22.5 20.1 14.5 60 4.7 SSW 20 30 11 16 1018.8 1018.7 0.0
28/01:30pm 22.9 20.6 14.2 58 5.1 SSW 19 28 10 15 1018.7 1018.6 0.0
28/01:00pm 22.7 20.3 14.5 60 4.8 SSE 20 28 11 15 1018.8 1018.7 0.0
28/12:30pm 22.5 19.9 13.9 58 5.0 S 20 26 11 14 1019.0 1018.9 0.0
28/12:00pm 22.5 20.3 14.9 62 4.5 S 20 26 11 14 1019.2 1019.1 0.0
28/11:30am 23.3 22.2 14.3 57 5.3 SSE 13 19 7 10 1019.5 1019.4 0.0
28/11:00am 22.6 21.0 14.0 58 5.0 SSW 15 22 8 12 1019.9 1019.8 0.0
28/10:30am 22.5 20.9 12.9 54 5.5 WSW 13 19 7 10 1020.1 1020.0 0.0
28/10:00am 21.5 19.8 12.3 55 5.2 SW 13 22 7 12 1020.2 1020.1 0.0
28/09:30am 21.2 19.6 12.9 59 4.7 W 13 17 7 9 1020.3 1020.2 0.0
28/09:00am 20.5 18.2 12.9 61 4.3 WNW 17 24 9 13 1020.4 1020.3 0.0
28/08:30am 19.3 17.4 12.9 66 3.6 NW 15 19 8 10 1020.2 1020.1 0.0
28/08:00am 17.7 16.8 12.7 72 2.8 NW 9 15 5 8 1020.4 1020.3 0.0
28/07:30am 15.0 14.4 11.6 80 1.8 N 6 7 3 4 1020.4 1020.3 0.0
28/07:00am 13.0 12.1 10.5 85 1.3 N 6 7 3 4 1020.3 1020.2 0.0
28/06:30am 12.0 11.0 10.2 89 0.9 NNW 6 7 3 4 1020.2 1020.1 0.0
28/06:00am 11.7 10.1 10.3 91 0.7 N 9 11 5 6 1019.9 1019.8 0.0
28/05:30am 12.8 11.8 10.9 88 1.0 N 7 9 4 5 1019.7 1019.6 0.0
28/05:00am 12.6 11.2 10.9 89 0.9 N 9 11 5 6 1019.4 1019.3 0.0
28/04:30am 12.8 11.8 10.9 88 1.0 N 7 7 4 4 1019.0 1018.9 0.0
28/04:00am 13.0 11.7 11.1 88 1.0 NNE 9 11 5 6 1018.9 1018.8 0.0
28/03:30am 13.8 12.8 11.1 84 1.4 N 7 9 4 5 1019.0 1018.9 0.0
28/03:00am 13.9 12.6 11.3 84 1.4 N 9 11 5 6 1019.1 1019.0 0.0
28/02:30am 14.0 12.4 11.4 84 1.4 NNE 11 13 6 7 1018.9 1018.8 0.0
28/02:00am 15.0 15.0 11.2 78 2.0 N 2 7 1 4 1019.4 1019.3 0.0
28/01:30am 15.0 14.2 11.2 78 2.0 NNE 6 7 3 4 1019.3 1019.2 0.0
28/01:00am 15.3 14.4 11.2 76 2.2 N 7 9 4 5 1019.6 1019.5 0.0
28/12:30am 15.9 15.0 11.2 73 2.5 NNE 7 13 4 7 1019.5 1019.4 0.0
28/12:00am 16.1 14.5 11.5 74 2.5 NNE 11 15 6 8 1019.8 1019.7 0.0
 
Date/Time
WST
Temp
°C
App
Temp
°C
Dew
Point
Rel
Hum
%
Delta-T
°C
Wind Press
QNH
hPa
Press
MSL
hPa
Rain
since 9 am
mm
Dir
 
Spd
km/h
Gust
km/h
Spd
kts
Gust
kts
27/11:30pm 16.0 13.9 11.3 73 2.5 NNE 13 17 7 9 1020.0 1019.9 0.0
27/11:00pm 16.4 13.6 11.2 71 2.8 N 17 24 9 13 1020.4 1020.3 0.0
27/10:30pm 17.0 14.4 10.8 67 3.3 NNE 15 22 8 12 1020.7 1020.6 0.0
27/10:00pm 17.4 14.4 10.7 65 3.6 NNE 17 28 9 15 1021.0 1020.9 0.0
27/09:30pm 17.6 14.7 10.9 65 3.6 NNE 17 24 9 13 1021.2 1021.1 0.0
27/09:00pm 17.5 14.5 10.8 65 3.6 NNE 17 24 9 13 1021.3 1021.2 0.0
27/08:30pm 16.4 14.4 10.1 66 3.3 NNE 11 15 6 8 1021.4 1021.3 0.0
27/08:00pm 16.5 14.9 10.2 66 3.3 NNE 9 13 5 7 1021.2 1021.1 0.0
27/07:30pm 17.2 15.2 10.0 62 3.8 NNE 11 13 6 7 1021.1 1021.0 0.0
27/07:00pm 18.0 16.2 9.6 58 4.4 N 9 13 5 7 1020.8 1020.7 0.0
27/06:30pm 18.7 16.2 9.6 55 4.8 NNE 13 19 7 10 1020.2 1020.1 0.0
27/06:00pm 19.5 15.0 9.9 54 5.1 N 24 33 13 18 1020.0 1019.9 0.0
27/05:30pm 21.0 16.1 8.6 45 6.5 NNE 24 32 13 17 1019.6 1019.5 0.0
27/05:00pm 21.8 17.5 6.9 38 7.6 NNE 19 26 10 14 1019.7 1019.6 0.0
27/04:30pm 22.2 17.7 5.9 34 8.2 NNE 19 26 10 14 1019.9 1019.8 0.0
27/04:00pm 22.4 17.5 5.3 33 8.5 N 20 26 11 14 1020.1 1020.0 0.0
27/03:30pm 22.7 17.0 4.9 31 8.8 N 24 35 13 19 1020.5 1020.4 0.0
27/03:00pm 23.7 17.9 4.5 28 9.5 N 24 32 13 17 1020.5 1020.4 0.0
27/02:30pm 23.9 18.4 3.9 27 9.8 N 22 32 12 17 1020.6 1020.5 0.0
27/02:00pm 25.7 20.6 4.3 25 10.7 NNE 20 30 11 16 1020.6 1020.5 0.0

Other Formats:

Comma delimited format used in spreadsheet applications
http://www.bom.gov.au/fwo/IDW60801/IDW60801.94638.axf

JavaScript Object Notation format (JSON) in row-major order
http://www.bom.gov.au/fwo/IDW60801/IDW60801.94638.json